Time;durP1;ratioP1;P1;durP2;ratioP2;P2;SDS_P1;SDS_P2;PMS_P1;PMS_P2;Temp;Humidity;BMP_temperature;BMP_pressure;BME280_temperature;BME280_humidity;BME280_pressure;Samples;Min_cycle;Max_cycle;Signal;HPM_P1;HPM_P2
2023/08/12 00:02:08;;;;;;;19.90;12.38;;;;;;;20.90;97.57;101718.47;5012466;28;20172;-69
2023/08/12 00:04:33;;;;;;;16.95;12.88;;;;;;;20.85;97.74;101721.00;5026928;28;20502;-69
2023/08/12 00:06:58;;;;;;;20.63;12.45;;;;;;;20.81;98.30;101720.59;5022750;28;20072;-69
2023/08/12 00:09:24;;;;;;;19.35;12.05;;;;;;;20.79;98.63;101721.84;5024776;28;20032;-69
2023/08/12 00:11:49;;;;;;;21.95;12.75;;;;;;;20.82;98.86;101726.84;5015945;28;20499;-69
2023/08/12 00:14:15;;;;;;;18.73;11.32;;;;;;;20.85;98.86;101718.31;5028383;28;20057;-69
2023/08/12 00:16:40;;;;;;;21.00;12.50;;;;;;;20.84;98.99;101711.25;5020145;28;20040;-69
2023/08/12 00:19:05;;;;;;;18.33;11.98;;;;;;;20.77;99.07;101713.97;5029371;28;20457;-69
2023/08/12 00:21:31;;;;;;;17.58;11.13;;;;;;;20.77;99.39;101713.13;5025951;28;20021;-69
2023/08/12 00:23:56;;;;;;;25.90;11.48;;;;;;;20.75;99.56;101704.44;5023439;28;20593;-69
2023/08/12 00:26:21;;;;;;;18.02;12.05;;;;;;;20.78;99.80;101698.59;5016267;28;20036;-69
2023/08/12 00:28:49;;;;;;;19.05;12.02;;;;;;;20.80;99.74;101691.09;5029394;28;20033;-69
2023/08/12 00:31:15;;;;;;;21.80;12.93;;;;;;;20.75;99.92;101688.22;5021822;28;20033;-69
2023/08/12 00:33:40;;;;;;;22.92;13.20;;;;;;;20.71;100.00;101690.53;5025806;28;20090;-69
2023/08/12 00:36:05;;;;;;;20.17;12.88;;;;;;;20.69;100.00;101698.84;5027064;28;20136;-69
2023/08/12 00:38:32;;;;;;;19.23;12.70;;;;;;;20.66;100.00;101684.97;5028229;28;20032;-69
2023/08/12 00:40:58;;;;;;;21.55;13.50;;;;;;;20.69;100.00;101690.75;5028157;28;20026;-69
2023/08/12 00:43:23;;;;;;;20.42;13.05;;;;;;;20.73;100.00;101677.66;5022887;28;20116;-69
2023/08/12 00:45:48;;;;;;;20.83;12.63;;;;;;;20.70;100.00;101673.53;5013658;28;20034;-68
2023/08/12 00:48:14;;;;;;;21.33;12.93;;;;;;;20.73;100.00;101683.06;5022086;28;20029;-69
2023/08/12 00:50:41;;;;;;;20.63;12.73;;;;;;;20.67;100.00;101675.81;5019853;28;20025;-69
2023/08/12 00:53:07;;;;;;;21.83;12.77;;;;;;;20.76;100.00;101676.38;5020964;28;20022;-69
2023/08/12 00:55:36;;;;;;;16.33;12.27;;;;;;;20.78;100.00;101663.50;5025335;28;20474;-68
2023/08/12 00:58:03;;;;;;;22.42;12.85;;;;;;;20.81;100.00;101657.66;5022766;28;20029;-69
2023/08/12 01:00:28;;;;;;;18.90;12.52;;;;;;;20.82;100.00;101665.56;5025310;28;20030;-69
2023/08/12 01:02:56;;;;;;;20.63;12.35;;;;;;;20.82;100.00;101665.56;5018391;28;20505;-68
2023/08/12 01:05:21;;;;;;;21.40;12.45;;;;;;;20.85;100.00;101670.53;5021794;28;20076;-68
2023/08/12 01:07:48;;;;;;;20.05;12.55;;;;;;;20.84;100.00;101659.94;5019438;28;20049;-68
2023/08/12 01:10:15;;;;;;;31.45;13.25;;;;;;;20.82;100.00;101659.34;5013915;28;20125;-69
2023/08/12 01:12:49;;;;;;;21.77;13.30;;;;;;;20.81;100.00;101658.47;5023933;28;20485;-69
2023/08/12 01:15:21;;;;;;;22.95;13.00;;;;;;;20.80;100.00;101650.59;5017843;28;20026;-68
2023/08/12 01:17:51;;;;;;;22.67;13.05;;;;;;;20.79;100.00;101647.06;5019252;28;20087;-69
2023/08/12 01:20:24;;;;;;;18.98;12.27;;;;;;;20.77;100.00;101649.16;5023330;28;20088;-69
2023/08/12 01:22:55;;;;;;;21.67;12.52;;;;;;;20.76;100.00;101642.13;5028134;28;20064;-69
2023/08/12 01:25:21;;;;;;;19.90;12.48;;;;;;;20.78;100.00;101641.91;5017135;28;20025;-68
2023/08/12 01:27:46;;;;;;;20.38;12.02;;;;;;;20.78;100.00;101625.69;5022913;28;20025;-69
2023/08/12 01:30:11;;;;;;;20.15;12.18;;;;;;;20.78;100.00;101626.53;5020314;28;20037;-69
2023/08/12 01:32:45;;;;;;;20.00;12.20;;;;;;;20.76;100.00;101630.50;5018278;28;20483;-69
2023/08/12 01:35:25;;;;;;;20.63;12.13;;;;;;;20.78;100.00;101623.00;5026338;28;20029;-69
2023/08/12 01:37:53;;;;;;;16.13;11.45;;;;;;;20.78;100.00;101617.59;5015001;28;20060;-68
2023/08/12 01:40:19;;;;;;;17.92;12.63;;;;;;;20.77;100.00;101624.03;5026873;28;20087;-69
2023/08/12 01:42:46;;;;;;;18.75;12.02;;;;;;;20.75;100.00;101615.34;5023582;28;20039;-69
2023/08/12 01:45:11;;;;;;;18.25;11.88;;;;;;;20.71;100.00;101614.97;5019873;28;20072;-69
2023/08/12 01:47:36;;;;;;;21.33;12.30;;;;;;;20.70;100.00;101622.22;5021254;28;20128;-69
2023/08/12 01:50:02;;;;;;;19.35;12.10;;;;;;;20.68;100.00;101618.91;5022459;28;20029;-69
2023/08/12 01:52:28;;;;;;;19.50;12.23;;;;;;;20.69;100.00;101620.56;5027057;28;20131;-69
2023/08/12 01:54:54;;;;;;;24.88;12.80;;;;;;;20.70;100.00;101616.84;5023327;28;20029;-69
2023/08/12 01:57:19;;;;;;;20.48;12.65;;;;;;;20.70;100.00;101607.91;5023609;28;20029;-69
2023/08/12 01:59:44;;;;;;;18.52;12.88;;;;;;;20.70;100.00;101600.63;5019808;28;20027;-69
2023/08/12 02:02:10;;;;;;;21.42;13.88;;;;;;;20.72;100.00;101601.25;5011784;28;20037;-69
2023/08/12 02:04:37;;;;;;;20.15;13.80;;;;;;;20.72;100.00;101605.81;5018300;28;20097;-68
2023/08/12 02:07:02;;;;;;;20.63;13.80;;;;;;;20.71;100.00;101607.69;5018132;28;20028;-69
2023/08/12 02:09:27;;;;;;;20.17;13.30;;;;;;;20.73;100.00;101615.56;5022065;28;20022;-69
2023/08/12 02:11:53;;;;;;;22.52;14.13;;;;;;;20.72;100.00;101603.13;5025557;28;20025;-68
2023/08/12 02:14:18;;;;;;;21.98;14.45;;;;;;;20.72;100.00;101603.94;5023100;28;20480;-69
2023/08/12 02:16:43;;;;;;;19.92;13.82;;;;;;;20.70;100.00;101597.94;5031555;28;20084;-69
2023/08/12 02:19:08;;;;;;;20.00;14.25;;;;;;;20.71;100.00;101596.88;5024329;28;20029;-69
2023/08/12 02:21:34;;;;;;;20.88;14.63;;;;;;;20.71;100.00;101604.16;5024811;28;20024;-69
2023/08/12 02:23:59;;;;;;;20.67;14.20;;;;;;;20.70;100.00;101602.50;5015466;28;20033;-69
2023/08/12 02:26:24;;;;;;;20.35;14.15;;;;;;;20.68;100.00;101591.09;5020618;28;20472;-69
2023/08/12 02:28:50;;;;;;;20.27;14.90;;;;;;;20.66;100.00;101594.03;5028534;28;20021;-69
2023/08/12 02:31:15;;;;;;;20.55;14.70;;;;;;;20.66;100.00;101593.19;5020562;28;20037;-69
2023/08/12 02:33:41;;;;;;;22.00;13.48;;;;;;;20.66;100.00;101583.22;5021420;28;20026;-69
2023/08/12 02:36:06;;;;;;;22.95;14.43;;;;;;;20.66;100.00;101577.84;5019890;28;20463;-69
2023/08/12 02:38:31;;;;;;;18.92;13.32;;;;;;;20.67;100.00;101582.19;5022277;28;20614;-69
2023/08/12 02:40:57;;;;;;;20.10;13.20;;;;;;;20.67;100.00;101576.78;5017005;28;20036;-69
2023/08/12 02:43:22;;;;;;;22.15;13.70;;;;;;;20.71;100.00;101569.06;5021053;28;20033;-69
2023/08/12 02:45:47;;;;;;;21.52;13.63;;;;;;;20.70;100.00;101568.25;5026754;28;20101;-69
2023/08/12 02:48:13;;;;;;;19.85;13.30;;;;;;;20.72;100.00;101566.16;5029469;28;20456;-69
2023/08/12 02:50:38;;;;;;;25.33;13.50;;;;;;;20.71;100.00;101569.06;5030230;28;20044;-69
2023/08/12 02:53:04;;;;;;;19.88;13.27;;;;;;;20.70;100.00;101573.63;5024395;28;20029;-68
2023/08/12 02:55:31;;;;;;;23.85;12.68;;;;;;;20.67;100.00;101560.59;5020808;28;20364;-69
2023/08/12 02:57:57;;;;;;;18.02;11.95;;;;;;;20.66;100.00;101561.63;5024843;28;20479;-69
2023/08/12 03:00:22;;;;;;;19.55;12.00;;;;;;;20.67;100.00;101563.28;5022647;28;20116;-69
2023/08/12 03:02:47;;;;;;;20.13;12.05;;;;;;;20.67;100.00;101544.41;5019791;28;20079;-69
2023/08/12 03:05:13;;;;;;;19.90;12.40;;;;;;;20.65;100.00;101538.38;5026589;28;20033;-69
2023/08/12 03:07:38;;;;;;;17.42;11.35;;;;;;;20.64;100.00;101546.72;5021723;28;20021;-69
2023/08/12 03:10:04;;;;;;;21.05;11.13;;;;;;;20.57;100.00;101546.78;5026162;28;20037;-69
2023/08/12 03:12:29;;;;;;;17.33;11.27;;;;;;;20.58;100.00;101542.19;5029683;28;20025;-69
2023/08/12 03:14:55;;;;;;;17.88;11.38;;;;;;;20.52;100.00;101538.47;5024684;28;20033;-69
2023/08/12 03:17:20;;;;;;;18.25;11.32;;;;;;;20.53;100.00;101536.59;5012784;28;20109;-68
2023/08/12 03:19:45;;;;;;;18.17;11.27;;;;;;;20.49;100.00;101536.22;5021864;28;20037;-69
2023/08/12 03:22:10;;;;;;;20.70;11.00;;;;;;;20.47;100.00;101532.09;5024427;28;20098;-69
2023/08/12 03:24:36;;;;;;;17.05;10.43;;;;;;;20.43;100.00;101529.00;5022994;28;20097;-68
2023/08/12 03:27:01;;;;;;;18.00;9.95;;;;;;;20.39;100.00;101535.84;5025774;28;20071;-69
2023/08/12 03:29:26;;;;;;;19.02;10.02;;;;;;;20.34;100.00;101535.69;5021053;28;20026;-69
2023/08/12 03:31:51;;;;;;;17.83;9.80;;;;;;;20.24;100.00;101525.38;5017153;28;20025;-68
2023/08/12 03:34:17;;;;;;;18.33;10.18;;;;;;;20.17;100.00;101521.06;5022305;28;20500;-69
2023/08/12 03:36:42;;;;;;;20.30;9.50;;;;;;;20.13;100.00;101522.53;5020299;28;20025;-69
2023/08/12 03:39:07;;;;;;;16.52;8.60;;;;;;;20.09;100.00;101514.06;5016084;28;20479;-69
2023/08/12 03:41:33;;;;;;;14.68;8.85;;;;;;;20.04;100.00;101520.13;5026366;28;20037;-69
2023/08/12 03:43:58;;;;;;;14.43;7.63;;;;;;;19.99;100.00;101511.03;5018356;28;20475;-69
2023/08/12 03:46:23;;;;;;;14.40;7.93;;;;;;;19.92;100.00;101505.63;5025329;28;20063;-69
2023/08/12 03:48:48;;;;;;;17.27;8.10;;;;;;;19.88;100.00;101503.59;5014514;28;20034;-68
2023/08/12 03:51:14;;;;;;;18.98;8.15;;;;;;;19.88;100.00;101509.81;5024202;28;20037;-69
2023/08/12 03:53:39;;;;;;;14.02;7.80;;;;;;;19.84;100.00;101505.91;5027900;28;20060;-68
2023/08/12 03:56:04;;;;;;;11.38;6.93;;;;;;;19.77;100.00;101502.41;5021332;28;20097;-69
2023/08/12 03:58:29;;;;;;;14.32;7.28;;;;;;;19.73;100.00;101502.03;5028842;28;20022;-68
2023/08/12 04:00:55;;;;;;;15.25;7.43;;;;;;;19.69;100.00;101495.41;5022537;28;20029;-69
2023/08/12 04:03:20;;;;;;;14.52;7.40;;;;;;;19.69;100.00;101502.69;5021865;28;20030;-69
2023/08/12 04:05:51;;;;;;;11.25;7.30;;;;;;;19.68;100.00;101499.16;5022127;28;20021;-69
2023/08/12 04:08:18;;;;;;;12.35;7.25;;;;;;;19.65;100.00;101496.03;5023155;28;20400;-69
2023/08/12 04:10:45;;;;;;;14.50;7.80;;;;;;;19.65;100.00;101498.72;5012857;28;20465;-68
2023/08/12 04:13:10;;;;;;;12.10;7.18;;;;;;;19.63;100.00;101492.72;5024250;28;20021;-68
2023/08/12 04:15:35;;;;;;;12.32;6.90;;;;;;;19.61;100.00;101500.19;5020928;28;20084;-69
2023/08/12 04:18:01;;;;;;;15.90;6.88;;;;;;;19.60;100.00;101495.84;5026775;28;20028;-69
2023/08/12 04:20:26;;;;;;;11.52;7.15;;;;;;;19.60;100.00;101485.06;5026049;28;20025;-69
2023/08/12 04:22:51;;;;;;;14.13;7.20;;;;;;;19.60;100.00;101480.50;5031349;28;20480;-69
2023/08/12 04:25:18;;;;;;;16.63;7.22;;;;;;;19.65;100.00;101477.16;5024959;28;20033;-68
2023/08/12 04:27:43;;;;;;;11.60;6.57;;;;;;;19.68;100.00;101474.06;5023177;28;20556;-69
2023/08/12 04:30:09;;;;;;;12.13;6.85;;;;;;;19.69;100.00;101467.66;5024441;28;20021;-69
2023/08/12 04:32:34;;;;;;;11.35;7.05;;;;;;;19.72;100.00;101464.50;5020242;28;20033;-69
2023/08/12 04:34:59;;;;;;;11.90;6.55;;;;;;;19.73;100.00;101463.47;5025882;28;20022;-68
2023/08/12 04:37:25;;;;;;;11.23;6.07;;;;;;;19.72;100.00;101461.81;5018236;28;20013;-69
2023/08/12 04:39:51;;;;;;;12.35;6.43;;;;;;;19.79;100.00;101457.22;5022813;28;20083;-69
2023/08/12 04:42:16;;;;;;;12.52;6.38;;;;;;;19.77;100.00;101460.13;5023286;28;20029;-69
2023/08/12 04:44:41;;;;;;;11.32;6.20;;;;;;;19.73;100.00;101467.00;5023722;28;20104;-68
2023/08/12 04:47:07;;;;;;;12.07;6.38;;;;;;;19.74;100.00;101459.72;5025487;28;20026;-69
2023/08/12 04:49:32;;;;;;;11.00;6.35;;;;;;;19.75;100.00;101451.44;5025857;28;20029;-69
2023/08/12 04:51:58;;;;;;;11.55;6.45;;;;;;;19.75;100.00;101442.53;5025880;28;20023;-69
2023/08/12 04:54:23;;;;;;;12.50;6.40;;;;;;;19.77;100.00;101443.13;5022026;28;20030;-69
2023/08/12 04:56:49;;;;;;;18.83;7.55;;;;;;;19.75;100.00;101445.22;5025187;28;20368;-69
2023/08/12 04:59:14;;;;;;;11.15;6.82;;;;;;;19.71;100.00;101469.09;5025757;28;20502;-69
2023/08/12 05:01:39;;;;;;;13.07;6.75;;;;;;;19.61;100.00;101468.69;5025121;28;20025;-69
2023/08/12 05:04:05;;;;;;;14.20;7.25;;;;;;;19.55;100.00;101468.72;5018060;28;20025;-69
2023/08/12 05:06:30;;;;;;;12.20;6.68;;;;;;;19.48;100.00;101469.56;5017252;28;20025;-70
2023/08/12 05:08:55;;;;;;;11.50;5.68;;;;;;;19.42;100.00;101456.97;5023592;28;20028;-69
2023/08/12 05:11:20;;;;;;;18.20;6.53;;;;;;;19.36;100.00;101451.56;5024353;28;20053;-69
2023/08/12 05:13:46;;;;;;;10.80;6.10;;;;;;;19.36;100.00;101446.19;5020321;28;20028;-69
2023/08/12 05:16:11;;;;;;;9.60;6.47;;;;;;;19.30;100.00;101450.56;5022811;28;20684;-69
2023/08/12 05:18:36;;;;;;;10.65;6.30;;;;;;;19.30;100.00;101447.03;5027974;28;20024;-69
2023/08/12 05:21:01;;;;;;;14.07;6.47;;;;;;;19.30;100.00;101447.88;5016836;28;20041;-69
2023/08/12 05:23:27;;;;;;;13.35;6.95;;;;;;;19.33;100.00;101447.44;5017915;28;20038;-70
2023/08/12 05:25:52;;;;;;;15.48;7.68;;;;;;;19.37;100.00;101448.69;5018758;28;20029;-70
2023/08/12 05:28:18;;;;;;;15.20;7.13;;;;;;;19.38;100.00;101442.25;5024033;28;20395;-70
2023/08/12 05:30:43;;;;;;;14.00;7.47;;;;;;;19.42;100.00;101440.78;5016061;28;20080;-69
2023/08/12 05:33:08;;;;;;;10.30;6.85;;;;;;;19.43;100.00;101434.38;5025526;28;20014;-69
2023/08/12 05:35:34;;;;;;;12.18;6.88;;;;;;;19.46;100.00;101435.81;5017503;28;20022;-69
2023/08/12 05:37:59;;;;;;;11.73;6.72;;;;;;;19.39;100.00;101418.84;5025773;28;20032;-69
2023/08/12 05:40:25;;;;;;;10.88;6.90;;;;;;;19.47;100.00;101430.19;5019330;28;20029;-70
2023/08/12 05:42:50;;;;;;;10.55;6.45;;;;;;;19.49;100.00;101424.59;5013246;28;20014;-70
2023/08/12 05:45:15;;;;;;;9.55;6.43;;;;;;;19.48;100.00;101429.16;5017331;28;20056;-70
2023/08/12 05:47:41;;;;;;;12.63;6.22;;;;;;;19.50;100.00;101434.31;5014346;28;20045;-69
2023/08/12 05:50:06;;;;;;;9.23;5.70;;;;;;;19.49;100.00;101430.81;5010122;28;20018;-69
2023/08/12 05:52:32;;;;;;;9.40;5.90;;;;;;;19.48;100.00;101425.63;5024981;28;20080;-69
2023/08/12 05:54:58;;;;;;;10.00;6.10;;;;;;;19.44;100.00;101427.94;5017180;28;20049;-69
2023/08/12 05:57:23;;;;;;;14.93;6.68;;;;;;;19.46;100.00;101428.53;5022575;28;20026;-69
2023/08/12 05:59:48;;;;;;;8.65;6.13;;;;;;;19.48;100.00;101420.25;5020774;28;20048;-69
2023/08/12 06:02:14;;;;;;;10.32;6.40;;;;;;;19.47;100.00;101415.91;5016420;28;20084;-69
2023/08/12 06:04:39;;;;;;;10.10;6.20;;;;;;;19.46;100.00;101419.63;5017798;28;20097;-69
2023/08/12 06:07:04;;;;;;;7.78;5.95;;;;;;;19.47;100.00;101416.72;5025786;28;20030;-69
2023/08/12 06:09:29;;;;;;;9.13;6.25;;;;;;;19.49;100.00;101417.34;5024497;28;20089;-69
2023/08/12 06:11:55;;;;;;;8.05;6.35;;;;;;;19.52;100.00;101415.25;5023404;28;20037;-69
2023/08/12 06:14:20;;;;;;;8.90;6.32;;;;;;;19.52;100.00;101416.06;5009334;28;20022;-69
2023/08/12 06:16:45;;;;;;;11.02;6.25;;;;;;;19.54;100.00;101405.94;5017637;28;20018;-69
2023/08/12 06:19:10;;;;;;;7.90;5.72;;;;;;;19.53;100.00;101409.69;5015257;28;20022;-69
2023/08/12 06:21:36;;;;;;;8.02;5.70;;;;;;;19.55;100.00;101409.47;5017075;28;20029;-69
2023/08/12 06:24:01;;;;;;;7.95;5.45;;;;;;;19.53;100.00;101411.50;5018142;28;20018;-69
2023/08/12 06:26:26;;;;;;;8.10;5.65;;;;;;;19.49;100.00;101409.25;5009118;28;20026;-69
2023/08/12 06:28:52;;;;;;;7.47;6.07;;;;;;;19.45;100.00;101402.66;5009675;28;20025;-69
2023/08/12 06:31:17;;;;;;;7.60;5.88;;;;;;;19.48;100.00;101407.59;5011299;28;20041;-69
2023/08/12 06:33:42;;;;;;;6.80;5.30;;;;;;;19.49;100.00;101408.44;5013898;28;20034;-69
2023/08/12 06:36:08;;;;;;;7.63;5.53;;;;;;;19.51;100.00;101398.25;5016093;28;20029;-68
2023/08/12 06:38:33;;;;;;;7.13;5.63;;;;;;;19.49;100.00;101403.88;5022074;28;20580;-69
2023/08/12 06:40:58;;;;;;;6.57;5.25;;;;;;;19.47;100.00;101392.47;5014947;28;20028;-69
2023/08/12 06:43:23;;;;;;;7.05;5.43;;;;;;;19.44;100.00;101398.31;5013298;28;20037;-69
2023/08/12 06:45:49;;;;;;;6.50;5.45;;;;;;;19.49;100.00;101392.25;5018244;28;20026;-69
2023/08/12 06:48:14;;;;;;;7.45;5.50;;;;;;;19.52;100.00;101389.13;5010690;28;20026;-69
2023/08/12 06:50:39;;;;;;;6.03;4.78;;;;;;;19.50;100.00;101383.97;5017521;28;20064;-69
2023/08/12 06:53:04;;;;;;;5.85;4.88;;;;;;;19.52;100.00;101389.13;5020687;28;20033;-69
2023/08/12 06:55:30;;;;;;;4.97;4.47;;;;;;;19.53;100.00;101380.03;5026400;28;20029;-69
2023/08/12 06:57:55;;;;;;;5.55;4.65;;;;;;;19.55;100.00;101383.34;5028417;28;21687;-69
2023/08/12 07:00:20;;;;;;;5.40;4.57;;;;;;;19.55;100.00;101379.81;5029419;28;20487;-69
2023/08/12 07:02:46;;;;;;;4.63;4.15;;;;;;;19.61;100.00;101376.25;5016279;28;20057;-69
2023/08/12 07:05:11;;;;;;;5.75;4.40;;;;;;;19.62;100.00;101373.34;5030236;28;20079;-69
2023/08/12 07:07:36;;;;;;;5.97;4.45;;;;;;;19.62;100.00;101373.34;5028618;28;20018;-69
2023/08/12 07:10:01;;;;;;;6.47;4.40;;;;;;;19.61;100.00;101369.00;5029580;28;20399;-69
2023/08/12 07:12:27;;;;;;;5.65;4.22;;;;;;;19.70;100.00;101366.88;5030633;28;20021;-69
2023/08/12 07:14:52;;;;;;;6.05;4.32;;;;;;;19.75;100.00;101367.06;5011708;28;20127;-69
2023/08/12 07:17:17;;;;;;;6.15;4.20;;;;;;;19.76;100.00;101371.41;5018569;28;20029;-69
2023/08/12 07:19:43;;;;;;;6.00;4.07;;;;;;;19.74;100.00;101368.09;5025503;28;20028;-69
2023/08/12 07:22:08;;;;;;;5.15;3.92;;;;;;;19.70;100.00;101369.59;5026451;28;20492;-69
2023/08/12 07:24:33;;;;;;;4.20;3.65;;;;;;;19.66;100.00;101368.34;5016234;28;20056;-69
2023/08/12 07:26:58;;;;;;;4.30;3.70;;;;;;;19.60;100.00;101371.91;5010220;28;20017;-69
2023/08/12 07:29:24;;;;;;;4.55;3.72;;;;;;;19.53;100.00;101366.56;5025621;28;20551;-69
2023/08/12 07:31:49;;;;;;;3.80;3.50;;;;;;;19.52;100.00;101367.59;5015780;28;20081;-69
2023/08/12 07:34:14;;;;;;;4.18;3.78;;;;;;;19.46;100.00;101366.59;5013045;28;20405;-69
2023/08/12 07:36:40;;;;;;;4.20;3.80;;;;;;;19.47;100.00;101372.81;5023272;28;20028;-69
2023/08/12 07:39:06;;;;;;;4.57;4.18;;;;;;;19.47;100.00;101370.94;5022900;28;20037;-69
2023/08/12 07:41:32;;;;;;;4.38;3.97;;;;;;;19.44;100.00;101379.44;5024312;28;20021;-69
2023/08/12 07:43:57;;;;;;;4.28;3.90;;;;;;;19.42;100.00;101369.94;5020837;28;20438;-69
2023/08/12 07:46:23;;;;;;;4.35;3.97;;;;;;;19.43;100.00;101371.59;5006346;28;20036;-69
2023/08/12 07:48:48;;;;;;;4.57;4.20;;;;;;;19.42;100.00;101370.75;5000577;28;20033;-69
2023/08/12 07:51:14;;;;;;;4.72;4.32;;;;;;;19.42;100.00;101365.38;5008251;28;20025;-69
2023/08/12 07:53:39;;;;;;;4.20;3.85;;;;;;;19.43;100.00;101368.88;5017414;28;20033;-69
2023/08/12 07:56:04;;;;;;;3.97;3.67;;;;;;;19.42;100.00;101357.28;5016195;28;20029;-69
2023/08/12 07:58:30;;;;;;;4.55;4.18;;;;;;;19.46;100.00;101366.59;5017213;28;20422;-69
2023/08/12 08:00:55;;;;;;;4.15;3.85;;;;;;;19.47;100.00;101362.84;5014158;28;20145;-68
2023/08/12 08:03:20;;;;;;;3.60;3.30;;;;;;;19.49;100.00;101370.72;5015390;28;20040;-69
2023/08/12 08:05:46;;;;;;;3.63;3.30;;;;;;;19.50;100.00;101370.50;5016559;28;20086;-69
2023/08/12 08:08:12;;;;;;;3.90;3.60;;;;;;;19.55;100.00;101372.56;5015780;28;20025;-68
2023/08/12 08:10:37;;;;;;;4.40;3.97;;;;;;;19.58;100.00;101374.81;5014378;28;20083;-69
2023/08/12 08:13:03;;;;;;;4.32;4.00;;;;;;;19.57;100.00;101366.97;5015504;28;20083;-68
2023/08/12 08:15:28;;;;;;;5.75;3.85;;;;;;;19.62;100.00;101375.22;5015605;28;20029;-68
2023/08/12 08:17:53;;;;;;;4.53;4.13;;;;;;;19.62;100.00;101384.13;5015747;28;20034;-68
2023/08/12 08:20:19;;;;;;;4.15;3.85;;;;;;;19.66;100.00;101389.91;5016234;28;20037;-68
2023/08/12 08:22:44;;;;;;;4.50;4.03;;;;;;;19.69;100.00;101392.19;5015826;28;20683;-68
2023/08/12 08:25:09;;;;;;;4.40;4.00;;;;;;;19.67;100.00;101391.59;5015623;28;20025;-68
2023/08/12 08:27:34;;;;;;;4.55;4.15;;;;;;;19.67;100.00;101395.09;5015866;28;20048;-68
2023/08/12 08:30:00;;;;;;;4.93;4.53;;;;;;;19.72;100.00;101394.44;5015198;28;20496;-68
2023/08/12 08:32:25;;;;;;;4.75;4.30;;;;;;;19.72;100.00;101397.97;5016779;28;20041;-68
2023/08/12 08:34:51;;;;;;;5.45;4.63;;;;;;;19.75;100.00;101404.78;5020314;28;20032;-68
2023/08/12 08:37:16;;;;;;;4.63;3.88;;;;;;;19.74;100.00;101398.56;5013987;28;20044;-68
2023/08/12 08:39:42;;;;;;;4.40;4.00;;;;;;;19.82;100.00;101408.25;5017686;28;21246;-69
2023/08/12 08:42:09;;;;;;;4.25;3.90;;;;;;;19.86;100.00;101416.72;5018829;28;20501;-68
2023/08/12 08:44:39;;;;;;;3.80;3.40;;;;;;;19.87;100.00;101404.91;5018275;28;20544;-69
2023/08/12 08:47:06;;;;;;;4.32;3.97;;;;;;;19.88;100.00;101407.38;5016945;28;20029;-68
2023/08/12 08:49:34;;;;;;;4.10;3.70;;;;;;;19.89;100.00;101409.03;5019219;28;20025;-68
2023/08/12 08:52:00;;;;;;;4.95;4.07;;;;;;;19.91;100.00;101431.19;5017829;28;20025;-69
2023/08/12 08:54:25;;;;;;;3.58;3.28;;;;;;;19.94;100.00;101419.97;5019102;28;20025;-68
2023/08/12 08:56:51;;;;;;;4.57;3.10;;;;;;;19.96;100.00;101428.72;5018337;28;20567;-68
2023/08/12 08:59:16;;;;;;;2.85;2.55;;;;;;;19.95;100.00;101421.66;5019042;28;20033;-69
2023/08/12 09:01:46;;;;;;;2.67;2.47;;;;;;;19.92;100.00;101432.84;5018630;28;20083;-69
2023/08/12 09:04:12;;;;;;;2.38;2.20;;;;;;;19.84;100.00;101433.13;5017421;28;20024;-69
2023/08/12 09:06:40;;;;;;;2.28;2.17;;;;;;;19.77;100.00;101424.25;5017636;28;21231;-69
2023/08/12 09:09:12;;;;;;;2.20;2.00;;;;;;;19.75;100.00;101427.16;5017493;28;20651;-69
2023/08/12 09:11:41;;;;;;;3.17;2.20;;;;;;;19.72;100.00;101430.31;5017229;28;20038;-68
2023/08/12 09:14:06;;;;;;;;;;;;;;;19.80;100.00;101443.50;5014000;28;20027;-69
2023/08/12 09:16:31;;;;;;;1.38;1.27;;;;;;;19.75;100.00;101447.91;5020123;28;19917;-69
2023/08/12 09:18:58;;;;;;;2.10;1.60;;;;;;;19.79;100.00;101447.25;5018113;28;20730;-69
2023/08/12 09:21:23;;;;;;;2.88;1.35;;;;;;;19.79;100.00;101443.72;4983016;28;1020125;-69
2023/08/12 09:23:49;;;;;;;3.15;1.40;;;;;;;19.85;100.00;101455.50;5016801;28;20104;-69
2023/08/12 09:26:16;;;;;;;1.52;1.10;;;;;;;19.80;100.00;101456.16;5020475;28;20497;-70
2023/08/12 09:28:42;;;;;;;1.70;1.10;;;;;;;19.77;100.00;101464.69;5018942;28;20834;-69
2023/08/12 09:31:08;;;;;;;1.30;1.20;;;;;;;19.73;100.00;101475.06;5017797;28;20037;-69
2023/08/12 09:33:39;;;;;;;3.10;1.38;;;;;;;19.65;100.00;101469.09;5016037;28;20115;-69
2023/08/12 09:36:04;;;;;;;3.47;1.33;;;;;;;19.68;100.00;101466.00;5017975;28;20036;-69
2023/08/12 09:38:29;;;;;;;4.22;1.92;;;;;;;19.70;100.00;101462.03;5016292;28;20029;-69
2023/08/12 09:40:55;;;;;;;3.00;1.80;;;;;;;19.75;100.00;101464.09;5018615;28;20017;-69
2023/08/12 09:43:23;;;;;;;2.88;1.40;;;;;;;19.82;100.00;101475.66;5016327;28;20029;-69
2023/08/12 09:45:49;;;;;;;3.22;1.30;;;;;;;19.86;100.00;101482.25;5016071;28;20040;-68
2023/08/12 09:48:16;;;;;;;3.58;1.85;;;;;;;19.89;100.00;101478.28;5015734;28;20033;-69
2023/08/12 09:50:41;;;;;;;2.35;1.42;;;;;;;19.84;100.00;101470.03;5015291;28;20033;-69
2023/08/12 09:53:09;;;;;;;2.50;1.33;;;;;;;19.75;100.00;101478.38;5018053;28;20041;-69
2023/08/12 09:55:36;;;;;;;3.38;1.40;;;;;;;19.70;100.00;101472.00;5017133;28;20033;-69
2023/08/12 09:58:05;;;;;;;4.22;1.50;;;;;;;19.75;100.00;101469.47;5017550;28;20028;-69
2023/08/12 10:00:30;;;;;;;;;;;;;;;19.83;100.00;101482.69;5018420;28;20028;-68
2023/08/12 10:02:56;;;;;;;3.08;1.20;;;;;;;19.75;100.00;101478.38;5015518;28;19909;-69
2023/08/12 10:05:26;;;;;;;3.65;1.30;;;;;;;19.77;99.79;101489.78;5016660;28;20087;-69
2023/08/12 10:07:52;;;;;;;3.85;1.52;;;;;;;19.97;99.80;101495.06;5019926;28;20472;-69
2023/08/12 10:10:18;;;;;;;4.63;1.40;;;;;;;20.00;98.67;101485.72;5017328;28;20025;-69
2023/08/12 10:12:43;;;;;;;6.10;1.63;;;;;;;20.03;98.65;101486.09;5016760;28;20039;-69
2023/08/12 10:15:10;;;;;;;5.68;1.48;;;;;;;19.93;97.03;101495.69;5016721;28;20030;-69
2023/08/12 10:17:36;;;;;;;5.63;1.50;;;;;;;19.84;96.31;101484.34;5016690;28;20491;-69
2023/08/12 10:20:04;;;;;;;6.00;1.80;;;;;;;19.87;96.37;101492.00;5019672;28;20017;-69
2023/08/12 10:22:30;;;;;;;6.10;1.70;;;;;;;19.85;95.50;101486.00;5018012;28;20033;-69
2023/08/12 10:24:58;;;;;;;5.53;1.95;;;;;;;19.84;95.61;101481.66;5015837;28;20021;-69
2023/08/12 10:27:24;;;;;;;5.18;1.80;;;;;;;20.00;96.24;101483.84;5018540;28;20062;-69
2023/08/12 10:29:50;;;;;;;5.57;2.22;;;;;;;20.02;96.07;101489.84;5017520;28;20033;-69
2023/08/12 10:32:15;;;;;;;5.15;2.00;;;;;;;20.01;95.80;101490.88;5020072;28;20044;-69
2023/08/12 10:34:41;;;;;;;4.90;2.00;;;;;;;19.98;95.22;101485.09;5021194;28;20482;-69
2023/08/12 10:37:10;;;;;;;6.15;2.00;;;;;;;19.99;94.44;101489.44;5020620;28;20040;-69
2023/08/12 10:39:36;;;;;;;7.07;2.05;;;;;;;20.12;94.54;101483.97;5023094;28;20025;-69
2023/08/12 10:42:01;;;;;;;5.30;2.10;;;;;;;20.24;94.18;101487.63;5021975;28;20026;-69
2023/08/12 10:44:41;;;;;;;4.40;1.77;;;;;;;20.35;93.60;101483.38;5023183;28;20022;-69
2023/08/12 10:47:10;;;;;;;3.97;1.70;;;;;;;20.47;92.91;101475.44;5020252;28;20043;-70
2023/08/12 10:49:42;;;;;;;;;;;;;;;20.63;92.99;101482.97;5018897;28;20029;-69
2023/08/12 10:52:25;;;;;;;4.90;1.58;;;;;;;20.75;89.89;101491.16;5022573;28;19917;-69
2023/08/12 10:54:52;;;;;;;4.78;1.75;;;;;;;20.83;87.24;101494.44;5023035;28;20390;-68
2023/08/12 10:57:17;;;;;;;4.00;1.58;;;;;;;20.95;86.59;101498.03;5021209;28;20029;-69
2023/08/12 10:59:46;;;;;;;5.47;1.70;;;;;;;21.01;83.58;101494.44;5021354;28;20029;-69
2023/08/12 11:02:20;;;;;;;6.50;1.50;;;;;;;21.01;81.80;101493.63;5020795;28;20029;-69
2023/08/12 11:04:54;;;;;;;6.18;1.45;;;;;;;20.95;80.58;101492.63;5020605;28;20021;-69
2023/08/12 11:07:21;;;;;;;7.80;1.40;;;;;;;20.99;80.79;101495.72;5022619;28;20084;-69